METAR AND TAF INFORMATION
METAR FOR RJSI
ADDS - METARS form results

(1043 UTC 20 July 2019)
Data provider http://aviationweather.gov/metar/data/
 
METAR text: RJSI 201000Z 18007KT 130V200 9999 VCSH FEW030 BKN050 25/22 Q1014
Conditions at: RJSI (HANAMAKI AIRPORT, JP) observed 1000 UTC 20 July 2019
Temperature: 25.0°C (77°F)
Dewpoint: 22.0°C (72°F) [RH = 83%]
Pressure (altimeter): 29.94 inches Hg (1014.0 mb)
Winds: from the S (180 degrees) at 8 MPH (7 knots; 3.6 m/s)
Visibility: 6 or more miles (10+ km)
Ceiling: 5000 feet AGL
Clouds: few clouds at 3000 feet AGL
broken clouds at 5000 feet AGL
Weather: VCSH  (showers in vicinity)

 AIRPORT MAP

 RUNWAY INFORMATION
Runway 02 Runway length 8202 ft Runway width 148 ft
Runway elevation 283 ft Runway displaced threshold 0 ft Runway heading 11
Runway 20 Runway length 8202 ft Runway width 148 ft
Runway elevation 298 ft Runway displaced threshold 0 ft Runway heading 191

 AIRPORT FREQUENCIES
Type ACC Name SAPPORO CO Frequency 124.5 MHZ
Type RDO Name RDO Frequency 118.2 MHZ

 AIRPORT NEAR NAVIGATION AIDS
Type VOR-DME Name Hanamaki Frequency 112800 KHZ



Powered by Virtual Airlines Manager [v2.6.2]